createdAt,value
2017-07-12T00:00:17.738Z,56.52
2017-07-12T00:02:36.095Z,56.52
2017-07-12T00:03:16.556Z,56.62
2017-07-12T00:03:57.007Z,56.52
2017-07-12T00:04:37.462Z,56.43
2017-07-12T00:05:17.919Z,56.62
2017-07-12T00:05:58.377Z,56.62
2017-07-12T00:06:38.840Z,56.62
2017-07-12T00:07:19.288Z,56.52
2017-07-12T00:07:59.746Z,56.62
2017-07-12T00:08:40.208Z,56.72
2017-07-12T00:09:20.657Z,56.43
2017-07-12T00:10:01.115Z,56.72
2017-07-12T00:10:41.572Z,56.62
2017-07-12T00:11:22.034Z,56.62
2017-07-12T00:12:02.496Z,56.62
2017-07-12T00:12:42.957Z,56.62
2017-07-12T00:13:23.415Z,56.62
2017-07-12T00:14:03.878Z,56.72
2017-07-12T00:14:44.358Z,56.92
2017-07-12T00:15:24.868Z,56.52
2017-07-12T00:16:05.273Z,56.62
2017-07-12T00:16:45.729Z,57.01
2017-07-12T00:17:26.183Z,56.62
2017-07-12T00:18:06.645Z,56.72
2017-07-12T00:18:47.118Z,56.52
2017-07-12T00:19:27.563Z,56.52
2017-07-12T00:20:08.019Z,56.52
2017-07-12T00:20:48.470Z,56.72
2017-07-12T00:21:28.942Z,56.52
2017-07-12T00:22:09.390Z,56.72
2017-07-12T00:22:49.844Z,56.62
2017-07-12T00:23:30.298Z,56.92
2017-07-12T00:24:10.762Z,56.62
2017-07-12T00:24:51.202Z,56.82
2017-07-12T00:25:31.655Z,56.72
2017-07-12T00:26:12.101Z,56.72
2017-07-12T00:26:52.555Z,56.52
2017-07-12T00:27:33.003Z,57.2
2017-07-12T00:28:13.478Z,57.2
2017-07-12T00:28:53.895Z,57.11
2017-07-12T00:29:34.352Z,57.11
2017-07-12T00:30:14.814Z,56.88
2017-07-12T00:30:55.326Z,57.08
2017-07-12T00:31:35.731Z,57.08
2017-07-12T00:32:16.191Z,57.08
2017-07-12T00:32:56.657Z,57.08
2017-07-12T00:33:37.113Z,57.11
2017-07-12T00:34:17.569Z,57.01
2017-07-12T00:34:58.025Z,56.98
2017-07-12T00:35:38.534Z,57.11
2017-07-12T00:36:18.932Z,56.88
2017-07-12T00:36:59.414Z,56.98
2017-07-12T00:37:39.872Z,57.08
2017-07-12T00:38:20.331Z,56.98
2017-07-12T00:39:00.784Z,56.98
2017-07-12T00:39:41.240Z,57.46
2017-07-12T00:40:21.699Z,57.37
2017-07-12T00:41:02.152Z,57.08
2017-07-12T00:41:42.602Z,56.79
2017-07-12T00:42:23.056Z,56.88
2017-07-12T00:43:03.510Z,56.98
2017-07-12T00:43:43.970Z,56.88
2017-07-12T00:44:24.420Z,57.08
2017-07-12T00:45:04.876Z,56.98
2017-07-12T00:45:45.325Z,56.98
2017-07-12T00:46:25.782Z,56.98
2017-07-12T00:47:06.240Z,57.08
2017-07-12T00:47:46.698Z,56.98
2017-07-12T00:48:27.155Z,56.88
2017-07-12T00:49:07.610Z,56.88
2017-07-12T00:49:48.082Z,56.98
2017-07-12T00:50:28.537Z,56.98
2017-07-12T00:51:08.990Z,57.08
2017-07-12T00:51:49.450Z,57.28
2017-07-12T00:52:29.905Z,56.5
2017-07-12T00:53:10.366Z,56.6
2017-07-12T00:53:50.824Z,57.18
2017-07-12T00:54:31.278Z,56.7
2017-07-12T00:55:11.739Z,56.98
2017-07-12T00:55:52.193Z,57.08
2017-07-12T00:56:32.646Z,56.88
2017-07-12T00:57:13.100Z,56.88
2017-07-12T00:57:53.556Z,56.98
2017-07-12T00:58:35.144Z,56.98
2017-07-12T00:59:15.599Z,57.46
2017-07-12T00:59:56.054Z,57.08
2017-07-12T01:00:36.504Z,56.79
2017-07-12T01:01:16.962Z,57.28
2017-07-12T01:01:57.414Z,57.08
2017-07-12T01:02:37.872Z,57.18
2017-07-12T01:03:18.331Z,57.18
2017-07-12T01:03:58.785Z,57.08
2017-07-12T01:04:39.245Z,57.37
2017-07-12T01:05:19.702Z,57.18
2017-07-12T01:06:00.157Z,57.37
2017-07-12T01:06:40.612Z,57.28
2017-07-12T01:07:21.065Z,57.18
2017-07-12T01:08:01.521Z,57.28
2017-07-12T01:08:41.970Z,56.98
2017-07-12T01:09:22.430Z,57.08
2017-07-12T01:10:02.896Z,56.79
2017-07-12T01:10:43.351Z,56.79
2017-07-12T01:11:23.808Z,57.18
2017-07-12T01:12:04.270Z,57.08
2017-07-12T01:12:44.731Z,57.18
2017-07-12T01:13:25.189Z,57.08
2017-07-12T01:14:05.643Z,57.28
2017-07-12T01:14:46.088Z,57.08
2017-07-12T01:15:26.545Z,56.79
2017-07-12T01:16:07.016Z,57.08
2017-07-12T01:16:47.461Z,56.98
2017-07-12T01:17:27.922Z,56.88
2017-07-12T01:18:08.378Z,57.18
2017-07-12T01:18:48.875Z,57.24
2017-07-12T01:19:29.286Z,57.28
2017-07-12T01:20:09.737Z,57.18
2017-07-12T01:20:50.198Z,57.82
2017-07-12T01:21:30.654Z,57.73
2017-07-12T01:22:11.108Z,57.73
2017-07-12T01:22:51.565Z,57.86
2017-07-12T01:23:32.015Z,57.73
2017-07-12T01:24:12.472Z,57.73
2017-07-12T01:24:52.936Z,57.73
2017-07-12T01:25:33.390Z,57.82
2017-07-12T01:26:13.843Z,57.63
2017-07-12T01:26:54.329Z,57.73
2017-07-12T01:27:34.787Z,57.34
2017-07-12T01:28:15.242Z,57.44
2017-07-12T01:28:55.705Z,57.44
2017-07-12T01:29:36.188Z,57.63
2017-07-12T01:30:16.645Z,57.44
2017-07-12T01:30:57.102Z,57.82
2017-07-12T01:31:37.568Z,57.63
2017-07-12T01:32:18.017Z,57.73
2017-07-12T01:32:58.482Z,57.63
2017-07-12T01:33:38.937Z,57.63
2017-07-12T01:34:19.393Z,57.54
2017-07-12T01:34:59.844Z,57.34
2017-07-12T01:35:40.295Z,57.54
2017-07-12T01:36:20.747Z,57.44
2017-07-12T01:37:01.204Z,57.54
2017-07-12T01:37:41.662Z,57.63
2017-07-12T01:38:22.115Z,57.44
2017-07-12T01:39:02.550Z,57.34
2017-07-12T01:39:43.005Z,57.63
2017-07-12T01:40:23.463Z,57.44
2017-07-12T01:41:03.909Z,57.73
2017-07-12T01:41:44.370Z,57.73
2017-07-12T01:42:24.827Z,57.73
2017-07-12T01:43:05.282Z,57.73
2017-07-12T01:43:45.738Z,57.73
2017-07-12T01:44:26.196Z,57.76
2017-07-12T01:45:06.651Z,57.76
2017-07-12T01:45:47.112Z,57.15
2017-07-12T01:46:27.571Z,57.24
2017-07-12T01:47:08.023Z,57.76
2017-07-12T01:47:48.497Z,57.73
2017-07-12T01:48:28.940Z,57.73
2017-07-12T01:49:09.392Z,57.63
2017-07-12T01:49:49.856Z,57.34
2017-07-12T01:50:30.315Z,57.73
2017-07-12T01:51:10.773Z,57.44
2017-07-12T01:51:51.243Z,57.44
2017-07-12T01:52:31.698Z,57.44
2017-07-12T01:53:12.155Z,57.54
2017-07-12T01:53:52.616Z,57.44
2017-07-12T01:54:33.072Z,57.63
2017-07-12T01:55:13.523Z,57.63
2017-07-12T01:55:54.051Z,57.44
2017-07-12T01:56:34.505Z,57.63
2017-07-12T01:57:14.961Z,57.82
2017-07-12T01:57:55.453Z,57.63
2017-07-12T01:58:35.868Z,58.02
2017-07-12T01:59:16.333Z,57.92
2017-07-12T01:59:56.788Z,57.7
2017-07-12T02:00:37.250Z,58.18
2017-07-12T02:01:17.707Z,57.7
2017-07-12T02:01:58.165Z,57.82
2017-07-12T02:02:38.628Z,57.89
2017-07-12T02:03:19.083Z,57.89
2017-07-12T02:03:59.546Z,57.89
2017-07-12T02:04:40.006Z,57.89
2017-07-12T02:05:20.465Z,57.89
2017-07-12T02:06:00.926Z,57.6
2017-07-12T02:06:41.383Z,57.89
2017-07-12T02:07:21.838Z,57.99
2017-07-12T02:08:02.292Z,57.79
2017-07-12T02:08:42.749Z,57.89
2017-07-12T02:09:23.200Z,57.6
2017-07-12T02:10:03.709Z,57.99
2017-07-12T02:10:44.105Z,57.79
2017-07-12T02:11:24.563Z,57.99
2017-07-12T02:12:05.013Z,57.99
2017-07-12T02:12:45.471Z,57.79
2017-07-12T02:13:25.927Z,57.89
2017-07-12T02:14:06.373Z,57.79
2017-07-12T02:14:46.830Z,57.99
2017-07-12T02:15:28.556Z,58.09
2017-07-12T02:16:09.009Z,57.89
2017-07-12T02:16:49.470Z,57.89
2017-07-12T02:17:29.928Z,58.18
2017-07-12T02:18:10.381Z,58.18
2017-07-12T02:18:50.834Z,58.09
2017-07-12T02:19:31.310Z,57.99
2017-07-12T02:20:11.765Z,57.89
2017-07-12T02:20:52.227Z,57.79
2017-07-12T02:21:32.681Z,57.79
2017-07-12T02:22:13.165Z,57.89
2017-07-12T02:22:53.619Z,57.89
2017-07-12T02:23:34.065Z,57.99
2017-07-12T02:24:14.521Z,57.79
2017-07-12T02:24:54.982Z,57.79
2017-07-12T02:25:35.438Z,58.09
2017-07-12T02:26:15.906Z,57.89
2017-07-12T02:26:56.365Z,57.89
2017-07-12T02:27:36.820Z,57.89
2017-07-12T02:28:17.278Z,58.18
2017-07-12T02:28:57.738Z,58.28
2017-07-12T02:29:38.195Z,58.28
2017-07-12T02:30:18.735Z,58.47
2017-07-12T02:30:59.177Z,58.37
2017-07-12T02:31:39.632Z,58.37
2017-07-12T02:32:20.083Z,58.37
2017-07-12T02:33:00.541Z,58.37
2017-07-12T02:33:41.001Z,58.47
2017-07-12T02:34:21.455Z,58.18
2017-07-12T02:35:01.906Z,58.28
2017-07-12T02:35:42.374Z,58.09
2017-07-12T02:36:22.818Z,58.28
2017-07-12T02:37:03.278Z,58.18
2017-07-12T02:37:43.738Z,58.18
2017-07-12T02:38:24.196Z,58.18
2017-07-12T02:39:04.653Z,58.37
2017-07-12T02:39:45.108Z,58.37
2017-07-12T02:40:25.563Z,58.37
2017-07-12T02:41:06.022Z,58.57
2017-07-12T02:41:46.476Z,58.37
2017-07-12T02:42:26.925Z,58.57
2017-07-12T02:43:07.381Z,58.37
2017-07-12T02:43:47.842Z,58.18
2017-07-12T02:44:28.297Z,58.28
2017-07-12T02:45:08.756Z,58.37
2017-07-12T02:45:49.204Z,58.09
2017-07-12T02:46:29.657Z,58.28
2017-07-12T02:47:10.104Z,58.37
2017-07-12T02:47:50.561Z,58.18
2017-07-12T02:48:31.020Z,58.37
2017-07-12T02:49:11.483Z,58.28
2017-07-12T02:49:51.939Z,58.25
2017-07-12T02:50:32.396Z,58.28
2017-07-12T02:51:12.853Z,58.18
2017-07-12T02:51:53.310Z,58.28
2017-07-12T02:52:33.769Z,58.18
2017-07-12T02:53:14.229Z,58.37
2017-07-12T02:53:54.689Z,58.18
2017-07-12T02:54:35.143Z,58.47
2017-07-12T02:55:15.603Z,58.76
2017-07-12T02:57:13.471Z,58.54
2017-07-12T02:57:53.925Z,58.67
2017-07-12T02:58:34.388Z,58.47
2017-07-12T02:59:14.841Z,58.47
2017-07-12T02:59:55.295Z,58.76
2017-07-12T03:00:35.752Z,58.76
2017-07-12T03:01:16.198Z,58.47
2017-07-12T03:01:56.654Z,58.47
2017-07-12T03:02:37.105Z,58.18
2017-07-12T03:03:17.558Z,58.18
2017-07-12T03:03:58.015Z,58.18
2017-07-12T03:04:38.476Z,58.28
2017-07-12T03:05:18.939Z,58.09
2017-07-12T03:05:59.388Z,58.37
2017-07-12T03:06:39.838Z,58.18
2017-07-12T03:07:20.294Z,58.57
2017-07-12T03:08:00.748Z,58.76
2017-07-12T03:08:41.202Z,58.76
2017-07-12T03:09:21.654Z,58.67
2017-07-12T03:10:02.101Z,58.76
2017-07-12T03:10:42.555Z,58.73
2017-07-12T03:11:23.011Z,58.28
2017-07-12T03:12:03.460Z,58.37
2017-07-12T03:12:43.919Z,58.28
2017-07-12T03:13:24.377Z,58.76
2017-07-12T03:14:04.832Z,58.47
2017-07-12T03:14:45.290Z,58.67
2017-07-12T03:15:25.748Z,58.67
2017-07-12T03:16:06.209Z,58.57
2017-07-12T03:16:46.666Z,58.57
2017-07-12T03:17:27.122Z,58.47
2017-07-12T03:18:07.580Z,58.18
2017-07-12T03:18:48.041Z,58.57
2017-07-12T03:19:28.498Z,58.47
2017-07-12T03:20:08.954Z,58.47
2017-07-12T03:22:21.842Z,58.57
2017-07-12T03:23:02.296Z,58.37
2017-07-12T03:23:42.748Z,58.57
2017-07-12T03:24:23.237Z,58.47
2017-07-12T03:25:03.693Z,58.57
2017-07-12T03:25:44.153Z,58.47
2017-07-12T03:26:24.611Z,58.67
2017-07-12T03:27:05.069Z,58.37
2017-07-12T03:27:45.539Z,58.47
2017-07-12T03:28:25.995Z,58.57
2017-07-12T03:29:06.448Z,58.47
2017-07-12T03:29:46.902Z,58.57
2017-07-12T03:30:27.364Z,58.47
2017-07-12T03:31:07.821Z,58.57
2017-07-12T03:31:48.276Z,58.47
2017-07-12T03:32:28.736Z,58.57
2017-07-12T03:33:09.177Z,58.57
2017-07-12T03:33:49.628Z,58.57
2017-07-12T03:34:30.083Z,58.37
2017-07-12T03:35:10.543Z,58.86
2017-07-12T03:35:50.999Z,58.93
2017-07-12T03:36:31.458Z,59.22
2017-07-12T03:37:11.915Z,59.12
2017-07-12T03:37:52.371Z,59.12
2017-07-12T03:38:32.826Z,58.83
2017-07-12T03:39:13.280Z,59.05
2017-07-12T03:39:53.735Z,59.02
2017-07-12T03:40:34.191Z,59.12
2017-07-12T03:41:14.651Z,59.05
2017-07-12T03:41:55.113Z,59.22
2017-07-12T03:42:35.610Z,59.41
2017-07-12T03:43:16.062Z,59.44
2017-07-12T03:43:56.526Z,59.44
2017-07-12T03:44:36.981Z,59.25
2017-07-12T03:45:17.429Z,59.53
2017-07-12T03:45:57.894Z,59.73
2017-07-12T03:46:38.350Z,59.44
2017-07-12T03:47:18.810Z,59.92
2017-07-12T03:47:59.271Z,59.73
2017-07-12T03:48:39.718Z,59.92
2017-07-12T03:49:20.179Z,60.02
2017-07-12T03:50:00.642Z,59.92
2017-07-12T03:50:41.093Z,59.92
2017-07-12T03:51:21.548Z,59.92
2017-07-12T03:52:02.008Z,59.83
2017-07-12T03:52:42.463Z,59.66
2017-07-12T03:53:22.918Z,59.76
2017-07-12T03:54:03.376Z,59.66
2017-07-12T03:54:43.833Z,59.76
2017-07-12T03:55:24.273Z,59.76
2017-07-12T03:56:04.722Z,59.86
2017-07-12T03:56:45.173Z,59.76
2017-07-12T03:57:25.631Z,59.66
2017-07-12T03:58:06.090Z,59.95
2017-07-12T03:58:46.537Z,59.47
2017-07-12T03:59:26.994Z,59.66
2017-07-12T04:00:07.446Z,59.66
2017-07-12T04:00:47.901Z,59.31
2017-07-12T04:01:28.362Z,59.21
2017-07-12T04:02:08.815Z,59.21
2017-07-12T04:02:49.281Z,59.21
2017-07-12T04:03:29.735Z,59.01
2017-07-12T04:04:10.199Z,59.21
2017-07-12T04:04:50.656Z,59.31
2017-07-12T04:05:31.117Z,59.4
2017-07-12T04:06:11.555Z,59.11
2017-07-12T04:06:52.033Z,59.21
2017-07-12T04:07:32.495Z,59.31
2017-07-12T04:08:12.937Z,59.05
2017-07-12T04:08:53.390Z,59.01
2017-07-12T04:09:33.850Z,58.53
2017-07-12T04:10:14.311Z,58.24
2017-07-12T04:10:54.768Z,58.47
2017-07-12T04:11:35.227Z,58.56
2017-07-12T04:12:15.681Z,58.56
2017-07-12T04:12:56.134Z,58.56
2017-07-12T04:13:36.589Z,58.75
2017-07-12T04:14:17.045Z,58.56
2017-07-12T04:14:57.503Z,58.85
2017-07-12T04:15:37.957Z,58.56
2017-07-12T04:16:18.414Z,58.27
2017-07-12T04:16:58.869Z,58.47
2017-07-12T04:17:39.309Z,58.17
2017-07-12T04:18:19.772Z,58.17
2017-07-12T04:19:00.228Z,58.27
2017-07-12T04:19:40.679Z,58.27
2017-07-12T04:20:21.141Z,58.37
2017-07-12T04:21:01.590Z,58.27
2017-07-12T04:21:42.049Z,58.47
2017-07-12T04:22:22.505Z,58.37
2017-07-12T04:23:02.961Z,58.27
2017-07-12T04:23:43.421Z,57.79
2017-07-12T04:24:23.864Z,57.98
2017-07-12T04:25:04.320Z,57.98
2017-07-12T04:25:44.775Z,57.98
2017-07-12T04:26:25.233Z,57.98
2017-07-12T04:27:05.693Z,57.98
2017-07-12T04:27:46.145Z,58.07
2017-07-12T04:28:26.594Z,57.79
2017-07-12T04:29:07.050Z,58.07
2017-07-12T04:29:47.513Z,57.98
2017-07-12T04:30:27.956Z,57.98
2017-07-12T04:31:08.410Z,57.98
2017-07-12T04:31:48.855Z,57.98
2017-07-12T04:32:29.332Z,57.88
2017-07-12T04:33:09.785Z,58.17
2017-07-12T04:33:50.245Z,57.91
2017-07-12T04:34:30.700Z,58.11
2017-07-12T04:35:11.147Z,57.88
2017-07-12T04:35:51.612Z,58.11
2017-07-12T04:36:32.072Z,58.17
2017-07-12T04:37:12.519Z,57.91
2017-07-12T04:37:52.976Z,57.98
2017-07-12T04:38:33.443Z,58.01
2017-07-12T04:39:13.903Z,58.01
2017-07-12T04:39:54.360Z,58.07
2017-07-12T04:40:34.819Z,57.98
2017-07-12T04:41:15.280Z,57.98
2017-07-12T04:41:55.818Z,57.69
2017-07-12T04:42:36.276Z,57.71
2017-07-12T04:43:16.792Z,58.07
2017-07-12T04:43:57.188Z,57.91
2017-07-12T04:44:37.643Z,57.81
2017-07-12T04:45:18.102Z,57.53
2017-07-12T04:45:58.555Z,57.53
2017-07-12T04:46:39.005Z,57.43
2017-07-12T04:47:19.454Z,57.71
2017-07-12T04:47:59.916Z,57.5
2017-07-12T04:48:40.374Z,57.4
2017-07-12T04:49:20.822Z,57.81
2017-07-12T04:50:01.281Z,57.62
2017-07-12T04:50:41.736Z,57.81
2017-07-12T04:51:22.191Z,57.04
2017-07-12T04:52:02.643Z,58.01
2017-07-12T04:52:43.097Z,57.62
2017-07-12T04:53:23.555Z,57.62
2017-07-12T04:54:04.010Z,57.43
2017-07-12T04:54:44.464Z,57.14
2017-07-12T04:55:24.922Z,57.04
2017-07-12T04:56:05.373Z,57.04
2017-07-12T04:56:45.829Z,57.23
2017-07-12T04:57:26.280Z,57.04
2017-07-12T04:58:06.735Z,57.23
2017-07-12T04:58:47.195Z,57.23
2017-07-12T04:59:27.660Z,57.23
2017-07-12T05:00:08.125Z,57.04
2017-07-12T05:00:48.567Z,57.33
2017-07-12T05:01:29.027Z,57.33
2017-07-12T05:02:09.484Z,57.23
2017-07-12T05:02:49.931Z,57.23
2017-07-12T05:03:30.396Z,57.43
2017-07-12T05:04:10.858Z,57.43
2017-07-12T05:04:51.298Z,56.94
2017-07-12T05:05:31.748Z,56.94
2017-07-12T05:06:12.201Z,56.94
2017-07-12T05:06:52.657Z,56.94
2017-07-12T05:07:33.120Z,56.94
2017-07-12T05:08:13.589Z,57.14
2017-07-12T05:08:54.040Z,57.14
2017-07-12T05:09:34.496Z,57.14
2017-07-12T05:10:14.955Z,57.14
2017-07-12T05:10:55.412Z,57.33
2017-07-12T05:11:35.877Z,57.33
2017-07-12T05:12:16.338Z,57.23
2017-07-12T05:12:56.799Z,56.65
2017-07-12T05:13:37.232Z,56.85
2017-07-12T05:14:17.693Z,56.85
2017-07-12T05:14:58.153Z,56.65
2017-07-12T05:15:38.598Z,56.75
2017-07-12T05:16:19.055Z,56.85
2017-07-12T05:16:59.506Z,56.75
2017-07-12T05:17:39.968Z,56.65
2017-07-12T05:18:20.423Z,56.94
2017-07-12T05:19:00.872Z,56.75
2017-07-12T05:19:41.698Z,56.85
2017-07-12T05:20:22.156Z,56.56
2017-07-12T05:21:02.613Z,56.75
2017-07-12T05:21:43.082Z,56.75
2017-07-12T05:22:23.532Z,56.65
2017-07-12T05:23:03.990Z,56.65
2017-07-12T05:23:44.445Z,56.65
2017-07-12T05:24:24.909Z,56.56
2017-07-12T05:25:05.355Z,56.46
2017-07-12T05:25:45.817Z,56.46
2017-07-12T05:26:26.262Z,56.46
2017-07-12T05:27:06.716Z,56.85
2017-07-12T05:27:47.177Z,56.75
2017-07-12T05:28:27.631Z,56.65
2017-07-12T05:29:08.094Z,56.26
2017-07-12T05:29:48.551Z,56.46
2017-07-12T05:30:29.009Z,56.56
2017-07-12T05:31:09.516Z,56.36
2017-07-12T05:31:49.977Z,56.36
2017-07-12T05:32:30.436Z,56.46
2017-07-12T05:33:10.893Z,56.26
2017-07-12T05:33:51.345Z,56.16
2017-07-12T05:34:31.803Z,56.16
2017-07-12T05:35:12.254Z,56.36
2017-07-12T05:35:52.715Z,56.26
2017-07-12T05:36:33.164Z,56.16
2017-07-12T05:37:13.625Z,56.36
2017-07-12T05:37:54.080Z,56.46
2017-07-12T05:38:34.583Z,56.46
2017-07-12T05:39:15.042Z,56.56
2017-07-12T05:39:55.498Z,56.56
2017-07-12T05:40:35.958Z,56.46
2017-07-12T05:41:16.418Z,56.36
2017-07-12T05:41:56.870Z,56.36
2017-07-12T05:42:37.322Z,56.26
2017-07-12T05:43:17.783Z,56.46
2017-07-12T05:43:58.243Z,56.46
2017-07-12T05:44:38.707Z,56.46
2017-07-12T05:45:19.220Z,56.36
2017-07-12T05:45:59.611Z,56.26
2017-07-12T05:46:40.069Z,56.07
2017-07-12T05:47:20.526Z,56.07
2017-07-12T05:48:00.976Z,56.16
2017-07-12T05:48:41.437Z,55.88
2017-07-12T05:49:21.899Z,56.16
2017-07-12T05:50:02.350Z,55.78
2017-07-12T05:50:42.802Z,55.98
2017-07-12T05:51:23.260Z,55.98
2017-07-12T05:52:03.702Z,55.98
2017-07-12T05:52:44.162Z,55.98
2017-07-12T05:53:24.626Z,55.88
2017-07-12T05:54:05.094Z,55.78
2017-07-12T05:54:45.528Z,56.16
2017-07-12T05:55:25.987Z,55.88
2017-07-12T05:56:06.434Z,55.88
2017-07-12T05:56:46.890Z,56.16
2017-07-12T05:57:27.345Z,56.07
2017-07-12T05:58:07.804Z,55.88
2017-07-12T05:58:48.257Z,55.88
2017-07-12T05:59:28.711Z,55.58
2017-07-12T06:00:09.168Z,55.78
2017-07-12T06:00:49.674Z,55.68
2017-07-12T06:01:30.129Z,55.68
2017-07-12T06:02:10.583Z,55.68
2017-07-12T06:02:51.041Z,55.78
2017-07-12T06:03:31.496Z,55.68
2017-07-12T06:04:11.953Z,55.78
2017-07-12T06:04:52.407Z,55.68
2017-07-12T06:05:32.869Z,55.58
2017-07-12T06:06:13.333Z,55.58
2017-07-12T06:06:53.780Z,55.88
2017-07-12T06:07:34.240Z,55.58
2017-07-12T06:08:14.698Z,55.58
2017-07-12T06:08:55.156Z,55.68
2017-07-12T06:09:35.608Z,55.58
2017-07-12T06:10:16.064Z,55.58
2017-07-12T06:10:56.526Z,55.78
2017-07-12T06:11:36.984Z,55.58
2017-07-12T06:12:17.441Z,55.58
2017-07-12T06:12:57.896Z,55.88
2017-07-12T06:13:38.356Z,55.98
2017-07-12T06:14:18.815Z,55.78
2017-07-12T06:14:59.275Z,55.88
2017-07-12T06:15:39.749Z,56.07
2017-07-12T06:16:20.204Z,55.88
2017-07-12T06:17:00.665Z,55.88
2017-07-12T06:17:41.125Z,55.78
2017-07-12T06:18:21.583Z,55.88
2017-07-12T06:19:02.044Z,55.88
2017-07-12T06:19:42.487Z,55.88
2017-07-12T06:20:22.941Z,55.78
2017-07-12T06:21:03.400Z,55.88
2017-07-12T06:21:43.860Z,55.68
2017-07-12T06:22:24.316Z,55.78
2017-07-12T06:23:04.773Z,55.78
2017-07-12T06:23:45.230Z,55.88
2017-07-12T06:24:25.676Z,55.98
2017-07-12T06:25:06.134Z,55.98
2017-07-12T06:25:46.590Z,55.78
2017-07-12T06:26:27.037Z,56.07
2017-07-12T06:27:07.495Z,55.49
2017-07-12T06:27:47.949Z,55.4
2017-07-12T06:28:28.407Z,55.49
2017-07-12T06:29:08.861Z,55.3
2017-07-12T06:29:49.330Z,55.4
2017-07-12T06:30:29.787Z,55.58
2017-07-12T06:31:10.246Z,55.58
2017-07-12T06:31:50.702Z,55.58
2017-07-12T06:32:31.159Z,55.49
2017-07-12T06:33:11.615Z,55.49
2017-07-12T06:33:52.086Z,55.68
2017-07-12T06:34:32.531Z,55.68
2017-07-12T06:35:12.984Z,55.49
2017-07-12T06:35:53.432Z,55.68
2017-07-12T06:36:33.877Z,55.3
2017-07-12T06:37:14.337Z,55.2
2017-07-12T06:37:54.806Z,55.4
2017-07-12T06:38:35.266Z,55.78
2017-07-12T06:39:15.721Z,55.4
2017-07-12T06:39:56.184Z,55.4
2017-07-12T06:40:36.624Z,55.68
2017-07-12T06:41:17.082Z,55.4
2017-07-12T06:41:57.539Z,55.58
2017-07-12T06:42:38.017Z,55.49
2017-07-12T06:43:18.461Z,55.4
2017-07-12T06:43:58.911Z,55.49
2017-07-12T06:44:39.360Z,55.4
2017-07-12T06:45:19.812Z,55.4
2017-07-12T06:46:00.262Z,55.4
2017-07-12T06:46:40.723Z,55.68
2017-07-12T06:47:21.183Z,55.49
2017-07-12T06:48:01.633Z,55.4
2017-07-12T06:48:42.092Z,55.4
2017-07-12T06:49:22.552Z,55.4
2017-07-12T06:50:03.010Z,55.49
2017-07-12T06:50:43.468Z,55.4
2017-07-12T06:51:23.921Z,55.49
2017-07-12T06:52:04.380Z,55.49
2017-07-12T06:52:44.837Z,55.68
2017-07-12T06:53:25.286Z,55.68
2017-07-12T06:54:05.741Z,55.58
2017-07-12T06:54:46.201Z,55.4
2017-07-12T06:55:26.660Z,55.58
2017-07-12T06:56:07.108Z,55.4
2017-07-12T06:56:47.560Z,55.58
2017-07-12T06:57:28.014Z,55.49
2017-07-12T06:58:08.472Z,55.49
2017-07-12T06:58:48.915Z,55.4
2017-07-12T06:59:29.410Z,55.49
2017-07-12T07:01:16.930Z,55.4
2017-07-12T07:01:57.383Z,55.4
2017-07-12T07:02:37.839Z,55.4
2017-07-12T07:03:18.295Z,55.3
2017-07-12T07:03:58.754Z,55.4
2017-07-12T07:04:39.212Z,55.2
2017-07-12T07:05:19.668Z,55.2
2017-07-12T07:06:00.126Z,55.2
2017-07-12T07:06:40.588Z,55.3
2017-07-12T07:07:21.047Z,55.2
2017-07-12T07:08:01.533Z,55.2
2017-07-12T07:08:41.986Z,55.4
2017-07-12T07:09:22.448Z,55.49
2017-07-12T07:10:02.905Z,55.4
2017-07-12T07:10:43.362Z,55.2
2017-07-12T07:11:23.816Z,55.49
2017-07-12T07:12:04.269Z,55.4
2017-07-12T07:12:44.728Z,55.49
2017-07-12T07:13:25.182Z,55.49
2017-07-12T07:14:05.634Z,55.49
2017-07-12T07:14:46.078Z,55.4
2017-07-12T07:15:26.583Z,55.49
2017-07-12T07:16:06.993Z,55.49
2017-07-12T07:16:47.433Z,55.49
2017-07-12T07:18:34.952Z,55.49
2017-07-12T07:19:15.399Z,55.2
2017-07-12T07:19:55.853Z,55.2
2017-07-12T07:20:36.314Z,55.58
2017-07-12T07:21:16.763Z,55.49
2017-07-12T07:21:57.223Z,55.58
2017-07-12T07:22:37.678Z,55.68
2017-07-12T07:23:18.136Z,55.2
2017-07-12T07:23:58.590Z,55.49
2017-07-12T07:24:39.041Z,55.2
2017-07-12T07:25:19.497Z,55.4
2017-07-12T07:25:59.961Z,55.2
2017-07-12T07:26:40.420Z,55.4
2017-07-12T07:27:20.881Z,55.4
2017-07-12T07:28:01.337Z,55.2
2017-07-12T07:28:41.784Z,55.4
2017-07-12T07:29:22.235Z,55.2
2017-07-12T07:30:02.692Z,55.58
2017-07-12T07:30:43.140Z,55.49
2017-07-12T07:31:23.581Z,55.68
2017-07-12T07:32:04.037Z,55.68
2017-07-12T07:32:44.490Z,55.49
2017-07-12T07:33:24.938Z,55.68
2017-07-12T07:34:05.392Z,55.49
2017-07-12T07:34:45.844Z,55.49
2017-07-12T07:35:26.303Z,55.4
2017-07-12T07:36:06.767Z,55.4
2017-07-12T07:36:47.223Z,55.4
2017-07-12T07:37:27.681Z,55.49
2017-07-12T07:38:08.142Z,55.49
2017-07-12T07:38:48.595Z,55.49
2017-07-12T07:39:29.050Z,55.4
2017-07-12T07:40:09.508Z,55.4
2017-07-12T07:40:49.954Z,55.58
2017-07-12T07:41:30.402Z,55.68
2017-07-12T07:42:10.849Z,55.49
2017-07-12T07:42:51.296Z,55.49
2017-07-12T07:43:31.750Z,55.58
2017-07-12T07:44:12.202Z,55.4
2017-07-12T07:44:52.654Z,55.49
2017-07-12T07:45:33.117Z,55.49
2017-07-12T07:46:13.569Z,55.49
2017-07-12T07:46:54.023Z,55.2
2017-07-12T07:47:34.475Z,55.58
2017-07-12T07:48:14.932Z,55.4
2017-07-12T07:48:55.398Z,55.4
2017-07-12T07:49:35.857Z,55.49
2017-07-12T07:50:16.315Z,55.49
2017-07-12T07:50:56.774Z,55.58
2017-07-12T07:51:37.225Z,55.58
2017-07-12T07:52:17.685Z,55.3
2017-07-12T07:52:58.132Z,55.2
2017-07-12T07:53:38.589Z,55.49
2017-07-12T07:54:19.037Z,55.68
2017-07-12T07:54:59.495Z,55.58
2017-07-12T07:55:39.934Z,55.58
2017-07-12T07:56:20.393Z,55.68
2017-07-12T07:57:00.844Z,55.49
2017-07-12T07:57:41.294Z,55.49
2017-07-12T07:58:21.745Z,55.58
2017-07-12T08:00:34.607Z,55.49
2017-07-12T08:01:15.057Z,55.49
2017-07-12T08:01:55.510Z,55.4
2017-07-12T08:02:35.958Z,55.4
2017-07-12T08:03:16.385Z,55.58
2017-07-12T08:03:56.803Z,55.4
2017-07-12T08:04:37.213Z,55.68
2017-07-12T08:05:17.686Z,55.58
2017-07-12T08:05:58.103Z,55.4
2017-07-12T08:06:38.570Z,55.4
2017-07-12T08:07:18.939Z,56.16
2017-07-12T08:07:59.355Z,55.49
2017-07-12T08:08:39.774Z,56.16
2017-07-12T08:09:20.193Z,55.49
2017-07-12T08:10:00.622Z,56.07
2017-07-12T08:10:40.984Z,56.07
2017-07-12T08:12:28.520Z,56.16
2017-07-12T08:13:08.983Z,55.88
2017-07-12T08:13:49.439Z,55.88
2017-07-12T08:14:29.897Z,55.98
2017-07-12T08:15:10.344Z,55.88
2017-07-12T08:15:50.797Z,55.88
2017-07-12T08:16:31.246Z,55.78
2017-07-12T08:17:11.703Z,55.68
2017-07-12T08:17:52.152Z,55.68
2017-07-12T08:18:32.655Z,55.78
2017-07-12T08:19:13.106Z,55.78
2017-07-12T08:19:53.556Z,55.78
2017-07-12T08:20:34.012Z,55.68
2017-07-12T08:21:14.471Z,55.58
2017-07-12T08:21:54.954Z,55.78
2017-07-12T08:24:13.018Z,55.88
2017-07-12T08:24:53.474Z,56.16
2017-07-12T08:25:33.933Z,56.07
2017-07-12T08:26:14.394Z,55.88
2017-07-12T08:26:54.852Z,55.78
2017-07-12T08:27:35.311Z,55.88
2017-07-12T08:28:15.763Z,55.88
2017-07-12T08:28:56.215Z,55.88
2017-07-12T08:29:36.663Z,55.98
2017-07-12T08:30:17.069Z,55.98
2017-07-12T08:30:58.347Z,55.98
2017-07-12T08:31:38.080Z,55.98
2017-07-12T08:32:18.535Z,55.88
2017-07-12T08:32:58.957Z,55.98
2017-07-12T08:33:39.448Z,55.98
2017-07-12T08:35:37.113Z,56.26
2017-07-12T08:36:17.564Z,56.46
2017-07-12T08:36:58.072Z,56.16
2017-07-12T08:37:38.492Z,56.26
2017-07-12T08:38:19.078Z,56.46
2017-07-12T08:38:59.490Z,56.46
2017-07-12T08:39:40.021Z,56.36
2017-07-12T08:41:27.532Z,56.36
2017-07-12T08:42:07.988Z,56.36
2017-07-12T08:42:48.484Z,56.46
2017-07-12T08:43:28.838Z,56.36
2017-07-12T08:44:09.248Z,56.36
2017-07-12T08:44:49.720Z,56.46
2017-07-12T08:45:30.169Z,56.56
2017-07-12T08:46:10.619Z,56.46
2017-07-12T08:46:51.077Z,56.36
2017-07-12T08:47:31.569Z,56.56
2017-07-12T08:48:12.001Z,56.46
2017-07-12T08:50:30.899Z,56.56
2017-07-12T08:51:11.358Z,56.65
2017-07-12T08:51:51.822Z,56.56
2017-07-12T08:52:32.489Z,56.56
2017-07-12T08:53:12.911Z,56.56
2017-07-12T08:55:25.725Z,56.56
2017-07-12T08:56:06.130Z,56.56
2017-07-12T08:56:46.660Z,56.46
2017-07-12T08:58:39.211Z,56.46
2017-07-12T08:59:19.667Z,56.56
2017-07-12T09:00:00.124Z,56.56
2017-07-12T09:00:40.582Z,56.56